sensor_id;sensor_type;location;lat;lon;timestamp;P1;durP1;ratioP1;P2;durP2;ratioP2
7929;SDS011;4010;42.698;23.124;2023-05-28T00:00:00;6.43;;;5.83;;
7929;SDS011;4010;42.698;23.124;2023-05-28T00:02:27;7.47;;;5.53;;
7929;SDS011;4010;42.698;23.124;2023-05-28T00:04:55;6.00;;;5.33;;
7929;SDS011;4010;42.698;23.124;2023-05-28T00:07:22;6.33;;;5.63;;
7929;SDS011;4010;42.698;23.124;2023-05-28T00:09:49;10.07;;;5.20;;
7929;SDS011;4010;42.698;23.124;2023-05-28T00:12:16;7.60;;;5.80;;
7929;SDS011;4010;42.698;23.124;2023-05-28T00:14:43;6.50;;;5.70;;
7929;SDS011;4010;42.698;23.124;2023-05-28T00:17:11;6.53;;;5.90;;
7929;SDS011;4010;42.698;23.124;2023-05-28T00:19:37;6.53;;;5.93;;
7929;SDS011;4010;42.698;23.124;2023-05-28T00:22:06;7.10;;;6.40;;
7929;SDS011;4010;42.698;23.124;2023-05-28T00:24:32;7.53;;;5.80;;
7929;SDS011;4010;42.698;23.124;2023-05-28T00:26:59;6.70;;;6.07;;
7929;SDS011;4010;42.698;23.124;2023-05-28T00:29:26;6.00;;;5.50;;
7929;SDS011;4010;42.698;23.124;2023-05-28T00:31:53;6.13;;;5.63;;
7929;SDS011;4010;42.698;23.124;2023-05-28T00:34:20;6.17;;;5.50;;
7929;SDS011;4010;42.698;23.124;2023-05-28T00:36:47;5.90;;;5.40;;
7929;SDS011;4010;42.698;23.124;2023-05-28T00:39:15;6.43;;;5.27;;
7929;SDS011;4010;42.698;23.124;2023-05-28T00:41:42;5.83;;;5.30;;
7929;SDS011;4010;42.698;23.124;2023-05-28T00:44:08;9.07;;;5.70;;
7929;SDS011;4010;42.698;23.124;2023-05-28T00:46:35;7.13;;;5.70;;
7929;SDS011;4010;42.698;23.124;2023-05-28T00:49:02;6.53;;;5.93;;
7929;SDS011;4010;42.698;23.124;2023-05-28T00:51:30;5.53;;;4.93;;
7929;SDS011;4010;42.698;23.124;2023-05-28T00:53:58;5.67;;;5.17;;
7929;SDS011;4010;42.698;23.124;2023-05-28T00:56:26;5.80;;;5.30;;
7929;SDS011;4010;42.698;23.124;2023-05-28T00:58:53;5.67;;;5.10;;
7929;SDS011;4010;42.698;23.124;2023-05-28T01:01:20;9.43;;;5.50;;
7929;SDS011;4010;42.698;23.124;2023-05-28T01:03:51;6.57;;;5.20;;
7929;SDS011;4010;42.698;23.124;2023-05-28T01:06:18;5.80;;;5.30;;
7929;SDS011;4010;42.698;23.124;2023-05-28T01:08:47;5.77;;;5.00;;
7929;SDS011;4010;42.698;23.124;2023-05-28T01:11:15;8.83;;;5.83;;
7929;SDS011;4010;42.698;23.124;2023-05-28T01:13:46;6.93;;;5.57;;
7929;SDS011;4010;42.698;23.124;2023-05-28T01:16:13;6.00;;;5.47;;
7929;SDS011;4010;42.698;23.124;2023-05-28T01:18:40;6.70;;;5.13;;
7929;SDS011;4010;42.698;23.124;2023-05-28T01:21:09;6.07;;;5.47;;
7929;SDS011;4010;42.698;23.124;2023-05-28T01:23:38;7.20;;;5.60;;
7929;SDS011;4010;42.698;23.124;2023-05-28T01:26:08;5.43;;;5.00;;
7929;SDS011;4010;42.698;23.124;2023-05-28T01:28:35;6.93;;;5.33;;
7929;SDS011;4010;42.698;23.124;2023-05-28T01:31:02;5.83;;;5.13;;
7929;SDS011;4010;42.698;23.124;2023-05-28T01:33:29;5.77;;;5.27;;
7929;SDS011;4010;42.698;23.124;2023-05-28T01:35:56;5.53;;;5.03;;
7929;SDS011;4010;42.698;23.124;2023-05-28T01:38:24;6.40;;;5.50;;
7929;SDS011;4010;42.698;23.124;2023-05-28T01:40:54;5.67;;;5.17;;
7929;SDS011;4010;42.698;23.124;2023-05-28T01:43:21;5.93;;;5.03;;
7929;SDS011;4010;42.698;23.124;2023-05-28T01:45:48;5.57;;;5.07;;
7929;SDS011;4010;42.698;23.124;2023-05-28T01:48:15;5.33;;;4.87;;
7929;SDS011;4010;42.698;23.124;2023-05-28T01:50:43;5.67;;;4.87;;
7929;SDS011;4010;42.698;23.124;2023-05-28T01:53:10;5.97;;;5.10;;
7929;SDS011;4010;42.698;23.124;2023-05-28T01:55:37;6.23;;;5.20;;
7929;SDS011;4010;42.698;23.124;2023-05-28T01:58:05;5.97;;;5.40;;
7929;SDS011;4010;42.698;23.124;2023-05-28T02:00:33;5.87;;;5.23;;
7929;SDS011;4010;42.698;23.124;2023-05-28T02:03:06;5.60;;;5.10;;
7929;SDS011;4010;42.698;23.124;2023-05-28T02:05:36;6.30;;;5.43;;
7929;SDS011;4010;42.698;23.124;2023-05-28T02:08:03;7.70;;;5.80;;
7929;SDS011;4010;42.698;23.124;2023-05-28T02:10:30;6.20;;;5.60;;
7929;SDS011;4010;42.698;23.124;2023-05-28T02:12:56;5.57;;;5.07;;
7929;SDS011;4010;42.698;23.124;2023-05-28T02:15:27;10.30;;;5.53;;
7929;SDS011;4010;42.698;23.124;2023-05-28T02:17:54;7.03;;;5.40;;
7929;SDS011;4010;42.698;23.124;2023-05-28T02:20:21;5.83;;;5.33;;
7929;SDS011;4010;42.698;23.124;2023-05-28T02:22:48;6.10;;;5.50;;
7929;SDS011;4010;42.698;23.124;2023-05-28T02:25:14;6.73;;;5.57;;
7929;SDS011;4010;42.698;23.124;2023-05-28T02:27:41;5.83;;;5.13;;
7929;SDS011;4010;42.698;23.124;2023-05-28T02:30:09;6.00;;;5.40;;
7929;SDS011;4010;42.698;23.124;2023-05-28T02:32:40;6.37;;;5.63;;
7929;SDS011;4010;42.698;23.124;2023-05-28T02:35:07;7.37;;;5.23;;
7929;SDS011;4010;42.698;23.124;2023-05-28T02:37:34;6.23;;;5.23;;
7929;SDS011;4010;42.698;23.124;2023-05-28T02:40:01;7.70;;;5.83;;
7929;SDS011;4010;42.698;23.124;2023-05-28T02:42:28;5.97;;;5.40;;
7929;SDS011;4010;42.698;23.124;2023-05-28T02:44:55;5.73;;;5.23;;
7929;SDS011;4010;42.698;23.124;2023-05-28T02:47:22;6.57;;;5.70;;
7929;SDS011;4010;42.698;23.124;2023-05-28T02:49:50;5.60;;;5.10;;
7929;SDS011;4010;42.698;23.124;2023-05-28T02:52:16;6.10;;;5.60;;
7929;SDS011;4010;42.698;23.124;2023-05-28T02:54:43;6.77;;;5.83;;
7929;SDS011;4010;42.698;23.124;2023-05-28T02:57:10;7.83;;;5.60;;
7929;SDS011;4010;42.698;23.124;2023-05-28T02:59:37;7.47;;;5.27;;
7929;SDS011;4010;42.698;23.124;2023-05-28T03:02:04;6.50;;;5.90;;
7929;SDS011;4010;42.698;23.124;2023-05-28T03:04:31;5.77;;;5.10;;
7929;SDS011;4010;42.698;23.124;2023-05-28T03:07:01;5.60;;;5.10;;
7929;SDS011;4010;42.698;23.124;2023-05-28T03:09:28;5.63;;;5.23;;
7929;SDS011;4010;42.698;23.124;2023-05-28T03:11:55;6.50;;;5.33;;
7929;SDS011;4010;42.698;23.124;2023-05-28T03:14:21;5.70;;;5.20;;
7929;SDS011;4010;42.698;23.124;2023-05-28T03:16:48;6.97;;;5.87;;
7929;SDS011;4010;42.698;23.124;2023-05-28T03:19:15;5.87;;;5.23;;
7929;SDS011;4010;42.698;23.124;2023-05-28T03:21:41;6.77;;;6.17;;
7929;SDS011;4010;42.698;23.124;2023-05-28T03:24:09;6.00;;;5.40;;
7929;SDS011;4010;42.698;23.124;2023-05-28T03:26:36;6.37;;;5.77;;
7929;SDS011;4010;42.698;23.124;2023-05-28T03:29:03;6.07;;;5.47;;
7929;SDS011;4010;42.698;23.124;2023-05-28T03:31:30;6.30;;;5.70;;
7929;SDS011;4010;42.698;23.124;2023-05-28T03:33:56;7.00;;;5.80;;
7929;SDS011;4010;42.698;23.124;2023-05-28T03:36:23;6.73;;;6.13;;
7929;SDS011;4010;42.698;23.124;2023-05-28T03:38:50;6.63;;;6.03;;
7929;SDS011;4010;42.698;23.124;2023-05-28T03:41:18;6.23;;;5.73;;
7929;SDS011;4010;42.698;23.124;2023-05-28T03:43:46;6.00;;;5.40;;
7929;SDS011;4010;42.698;23.124;2023-05-28T03:46:13;6.57;;;5.97;;
7929;SDS011;4010;42.698;23.124;2023-05-28T03:48:39;6.20;;;5.40;;
7929;SDS011;4010;42.698;23.124;2023-05-28T03:51:06;7.20;;;5.87;;
7929;SDS011;4010;42.698;23.124;2023-05-28T03:53:35;6.47;;;5.87;;
7929;SDS011;4010;42.698;23.124;2023-05-28T03:56:01;6.80;;;6.20;;
7929;SDS011;4010;42.698;23.124;2023-05-28T03:58:30;5.83;;;5.33;;
7929;SDS011;4010;42.698;23.124;2023-05-28T04:00:56;6.80;;;6.13;;
7929;SDS011;4010;42.698;23.124;2023-05-28T04:03:23;6.50;;;5.67;;
7929;SDS011;4010;42.698;23.124;2023-05-28T04:05:50;6.10;;;5.60;;
7929;SDS011;4010;42.698;23.124;2023-05-28T04:08:17;7.23;;;6.23;;
7929;SDS011;4010;42.698;23.124;2023-05-28T04:10:43;6.23;;;5.73;;
7929;SDS011;4010;42.698;23.124;2023-05-28T04:13:10;6.53;;;5.93;;
7929;SDS011;4010;42.698;23.124;2023-05-28T04:15:38;7.40;;;6.50;;
7929;SDS011;4010;42.698;23.124;2023-05-28T04:18:05;6.67;;;6.07;;
7929;SDS011;4010;42.698;23.124;2023-05-28T04:20:32;7.03;;;6.23;;
7929;SDS011;4010;42.698;23.124;2023-05-28T04:23:00;7.17;;;6.33;;
7929;SDS011;4010;42.698;23.124;2023-05-28T04:25:28;7.70;;;6.27;;
7929;SDS011;4010;42.698;23.124;2023-05-28T04:27:54;6.93;;;6.23;;
7929;SDS011;4010;42.698;23.124;2023-05-28T04:30:21;7.27;;;6.17;;
7929;SDS011;4010;42.698;23.124;2023-05-28T04:32:50;5.90;;;5.40;;
7929;SDS011;4010;42.698;23.124;2023-05-28T04:35:17;6.37;;;5.73;;
7929;SDS011;4010;42.698;23.124;2023-05-28T04:37:44;7.77;;;5.77;;
7929;SDS011;4010;42.698;23.124;2023-05-28T04:40:11;6.67;;;5.80;;
7929;SDS011;4010;42.698;23.124;2023-05-28T04:42:38;6.00;;;5.50;;
7929;SDS011;4010;42.698;23.124;2023-05-28T04:45:06;5.97;;;5.30;;
7929;SDS011;4010;42.698;23.124;2023-05-28T04:47:34;8.47;;;5.77;;
7929;SDS011;4010;42.698;23.124;2023-05-28T04:50:03;7.60;;;6.27;;
7929;SDS011;4010;42.698;23.124;2023-05-28T04:52:31;6.23;;;5.63;;
7929;SDS011;4010;42.698;23.124;2023-05-28T04:55:00;6.30;;;4.90;;
7929;SDS011;4010;42.698;23.124;2023-05-28T04:57:27;6.60;;;6.00;;
7929;SDS011;4010;42.698;23.124;2023-05-28T04:59:54;6.67;;;6.00;;
7929;SDS011;4010;42.698;23.124;2023-05-28T05:02:21;7.07;;;5.57;;
7929;SDS011;4010;42.698;23.124;2023-05-28T05:04:48;6.33;;;5.10;;
7929;SDS011;4010;42.698;23.124;2023-05-28T05:07:16;5.60;;;5.10;;
7929;SDS011;4010;42.698;23.124;2023-05-28T05:09:43;5.37;;;4.87;;
7929;SDS011;4010;42.698;23.124;2023-05-28T05:12:10;5.10;;;4.70;;
7929;SDS011;4010;42.698;23.124;2023-05-28T05:14:36;5.73;;;5.20;;
7929;SDS011;4010;42.698;23.124;2023-05-28T05:17:03;5.47;;;5.07;;
7929;SDS011;4010;42.698;23.124;2023-05-28T05:19:33;6.30;;;5.70;;
7929;SDS011;4010;42.698;23.124;2023-05-28T05:22:00;7.57;;;5.00;;
7929;SDS011;4010;42.698;23.124;2023-05-28T05:24:29;5.27;;;4.77;;
7929;SDS011;4010;42.698;23.124;2023-05-28T05:26:56;6.70;;;5.27;;
7929;SDS011;4010;42.698;23.124;2023-05-28T05:29:23;5.60;;;5.10;;
7929;SDS011;4010;42.698;23.124;2023-05-28T05:31:50;8.20;;;5.63;;
7929;SDS011;4010;42.698;23.124;2023-05-28T05:34:16;6.07;;;5.43;;
7929;SDS011;4010;42.698;23.124;2023-05-28T05:36:43;5.73;;;5.13;;
7929;SDS011;4010;42.698;23.124;2023-05-28T05:39:10;6.17;;;5.57;;
7929;SDS011;4010;42.698;23.124;2023-05-28T05:41:38;6.87;;;5.80;;
7929;SDS011;4010;42.698;23.124;2023-05-28T05:44:05;20.53;;;9.70;;
7929;SDS011;4010;42.698;23.124;2023-05-28T05:46:31;6.90;;;5.70;;
7929;SDS011;4010;42.698;23.124;2023-05-28T05:48:58;5.63;;;5.13;;
7929;SDS011;4010;42.698;23.124;2023-05-28T05:51:25;22.90;;;11.13;;
7929;SDS011;4010;42.698;23.124;2023-05-28T05:53:51;7.57;;;6.00;;
7929;SDS011;4010;42.698;23.124;2023-05-28T05:56:18;14.73;;;8.23;;
7929;SDS011;4010;42.698;23.124;2023-05-28T05:58:46;7.37;;;6.77;;
7929;SDS011;4010;42.698;23.124;2023-05-28T06:01:15;6.57;;;5.90;;
7929;SDS011;4010;42.698;23.124;2023-05-28T06:03:42;6.87;;;5.97;;
7929;SDS011;4010;42.698;23.124;2023-05-28T06:06:09;7.67;;;5.90;;
7929;SDS011;4010;42.698;23.124;2023-05-28T06:08:36;7.57;;;6.03;;
7929;SDS011;4010;42.698;23.124;2023-05-28T06:11:02;9.53;;;7.10;;
7929;SDS011;4010;42.698;23.124;2023-05-28T06:13:29;12.83;;;6.90;;
7929;SDS011;4010;42.698;23.124;2023-05-28T06:15:57;8.33;;;7.10;;
7929;SDS011;4010;42.698;23.124;2023-05-28T06:18:24;7.07;;;6.27;;
7929;SDS011;4010;42.698;23.124;2023-05-28T06:20:51;8.17;;;5.90;;
7929;SDS011;4010;42.698;23.124;2023-05-28T06:23:18;20.50;;;8.57;;
7929;SDS011;4010;42.698;23.124;2023-05-28T06:25:44;15.70;;;7.47;;
7929;SDS011;4010;42.698;23.124;2023-05-28T06:28:11;8.00;;;5.47;;
7929;SDS011;4010;42.698;23.124;2023-05-28T06:30:38;7.27;;;6.00;;
7929;SDS011;4010;42.698;23.124;2023-05-28T06:33:07;5.87;;;5.33;;
7929;SDS011;4010;42.698;23.124;2023-05-28T06:35:34;6.93;;;5.40;;
7929;SDS011;4010;42.698;23.124;2023-05-28T06:38:01;6.73;;;5.40;;
7929;SDS011;4010;42.698;23.124;2023-05-28T06:40:28;11.13;;;6.77;;
7929;SDS011;4010;42.698;23.124;2023-05-28T06:42:54;6.43;;;5.17;;
7929;SDS011;4010;42.698;23.124;2023-05-28T06:45:21;5.93;;;5.37;;
7929;SDS011;4010;42.698;23.124;2023-05-28T06:47:48;5.63;;;5.13;;
7929;SDS011;4010;42.698;23.124;2023-05-28T06:50:16;8.83;;;5.73;;
7929;SDS011;4010;42.698;23.124;2023-05-28T06:52:43;7.57;;;6.07;;
7929;SDS011;4010;42.698;23.124;2023-05-28T06:55:09;6.67;;;6.07;;
7929;SDS011;4010;42.698;23.124;2023-05-28T06:57:36;6.70;;;6.10;;
7929;SDS011;4010;42.698;23.124;2023-05-28T07:00:03;6.80;;;6.10;;
7929;SDS011;4010;42.698;23.124;2023-05-28T07:02:34;6.30;;;5.70;;
7929;SDS011;4010;42.698;23.124;2023-05-28T07:05:01;6.60;;;5.87;;
7929;SDS011;4010;42.698;23.124;2023-05-28T07:07:31;6.57;;;5.97;;
7929;SDS011;4010;42.698;23.124;2023-05-28T07:09:57;6.00;;;5.13;;
7929;SDS011;4010;42.698;23.124;2023-05-28T07:12:25;5.87;;;5.27;;
7929;SDS011;4010;42.698;23.124;2023-05-28T07:14:51;8.13;;;5.60;;
7929;SDS011;4010;42.698;23.124;2023-05-28T07:17:18;7.20;;;5.33;;
7929;SDS011;4010;42.698;23.124;2023-05-28T07:19:46;5.43;;;5.03;;
7929;SDS011;4010;42.698;23.124;2023-05-28T07:22:12;6.60;;;5.90;;
7929;SDS011;4010;42.698;23.124;2023-05-28T07:24:40;6.70;;;6.10;;
7929;SDS011;4010;42.698;23.124;2023-05-28T07:27:07;6.60;;;5.93;;
7929;SDS011;4010;42.698;23.124;2023-05-28T07:29:34;6.83;;;6.17;;
7929;SDS011;4010;42.698;23.124;2023-05-28T07:32:01;7.37;;;5.63;;
7929;SDS011;4010;42.698;23.124;2023-05-28T07:34:27;7.27;;;6.57;;
7929;SDS011;4010;42.698;23.124;2023-05-28T07:36:54;6.00;;;5.50;;
7929;SDS011;4010;42.698;23.124;2023-05-28T07:39:21;9.00;;;6.30;;
7929;SDS011;4010;42.698;23.124;2023-05-28T07:41:49;7.47;;;6.20;;
7929;SDS011;4010;42.698;23.124;2023-05-28T07:44:16;8.07;;;6.93;;
7929;SDS011;4010;42.698;23.124;2023-05-28T07:46:42;7.53;;;6.83;;
7929;SDS011;4010;42.698;23.124;2023-05-28T07:49:09;8.10;;;6.90;;
7929;SDS011;4010;42.698;23.124;2023-05-28T07:51:36;7.80;;;7.00;;
7929;SDS011;4010;42.698;23.124;2023-05-28T07:54:03;7.93;;;6.27;;
7929;SDS011;4010;42.698;23.124;2023-05-28T07:56:30;7.17;;;6.47;;
7929;SDS011;4010;42.698;23.124;2023-05-28T07:58:58;8.40;;;7.47;;
7929;SDS011;4010;42.698;23.124;2023-05-28T08:01:25;8.37;;;7.57;;
7929;SDS011;4010;42.698;23.124;2023-05-28T08:03:52;8.23;;;7.43;;
7929;SDS011;4010;42.698;23.124;2023-05-28T08:06:19;7.43;;;6.73;;
7929;SDS011;4010;42.698;23.124;2023-05-28T08:08:46;6.63;;;6.13;;
7929;SDS011;4010;42.698;23.124;2023-05-28T08:11:13;5.23;;;4.73;;
7929;SDS011;4010;42.698;23.124;2023-05-28T08:13:40;6.57;;;5.27;;
7929;SDS011;4010;42.698;23.124;2023-05-28T08:16:08;6.57;;;4.97;;
7929;SDS011;4010;42.698;23.124;2023-05-28T08:18:36;4.90;;;4.50;;
7929;SDS011;4010;42.698;23.124;2023-05-28T08:21:04;5.43;;;4.93;;
7929;SDS011;4010;42.698;23.124;2023-05-28T08:23:31;7.77;;;4.47;;
7929;SDS011;4010;42.698;23.124;2023-05-28T08:25:59;5.40;;;4.90;;
7929;SDS011;4010;42.698;23.124;2023-05-28T08:28:26;5.37;;;4.87;;
7929;SDS011;4010;42.698;23.124;2023-05-28T08:30:53;6.30;;;5.73;;
7929;SDS011;4010;42.698;23.124;2023-05-28T08:33:21;5.10;;;4.60;;
7929;SDS011;4010;42.698;23.124;2023-05-28T08:35:48;6.20;;;5.07;;
7929;SDS011;4010;42.698;23.124;2023-05-28T08:38:15;6.57;;;4.93;;
7929;SDS011;4010;42.698;23.124;2023-05-28T08:40:48;6.23;;;5.63;;
7929;SDS011;4010;42.698;23.124;2023-05-28T08:43:15;6.40;;;4.77;;
7929;SDS011;4010;42.698;23.124;2023-05-28T08:45:42;6.77;;;4.90;;
7929;SDS011;4010;42.698;23.124;2023-05-28T08:48:09;5.37;;;4.60;;
7929;SDS011;4010;42.698;23.124;2023-05-28T08:50:40;4.73;;;4.13;;
7929;SDS011;4010;42.698;23.124;2023-05-28T08:53:12;6.20;;;5.20;;
7929;SDS011;4010;42.698;23.124;2023-05-28T08:55:42;7.03;;;4.67;;
7929;SDS011;4010;42.698;23.124;2023-05-28T08:58:10;5.70;;;4.67;;
7929;SDS011;4010;42.698;23.124;2023-05-28T09:00:36;5.80;;;5.20;;
7929;SDS011;4010;42.698;23.124;2023-05-28T09:03:05;5.27;;;4.77;;
7929;SDS011;4010;42.698;23.124;2023-05-28T09:05:33;5.47;;;4.97;;
7929;SDS011;4010;42.698;23.124;2023-05-28T09:08:03;5.67;;;5.07;;
7929;SDS011;4010;42.698;23.124;2023-05-28T09:10:32;5.37;;;4.87;;
7929;SDS011;4010;42.698;23.124;2023-05-28T09:12:59;6.37;;;4.97;;
7929;SDS011;4010;42.698;23.124;2023-05-28T09:15:27;7.20;;;5.23;;
7929;SDS011;4010;42.698;23.124;2023-05-28T09:17:54;6.50;;;4.97;;
7929;SDS011;4010;42.698;23.124;2023-05-28T09:20:23;6.37;;;5.67;;
7929;SDS011;4010;42.698;23.124;2023-05-28T09:22:56;7.22;;;5.93;;
7929;SDS011;4010;42.698;23.124;2023-05-28T09:25:26;6.07;;;5.53;;
7929;SDS011;4010;42.698;23.124;2023-05-28T09:27:53;6.47;;;5.67;;
7929;SDS011;4010;42.698;23.124;2023-05-28T09:30:20;5.63;;;5.13;;
7929;SDS011;4010;42.698;23.124;2023-05-28T09:32:54;4.30;;;3.90;;
7929;SDS011;4010;42.698;23.124;2023-05-28T09:35:24;5.03;;;3.40;;
7929;SDS011;4010;42.698;23.124;2023-05-28T09:37:58;5.00;;;3.83;;
7929;SDS011;4010;42.698;23.124;2023-05-28T09:40:27;3.90;;;3.60;;
7929;SDS011;4010;42.698;23.124;2023-05-28T09:42:54;3.93;;;3.53;;
7929;SDS011;4010;42.698;23.124;2023-05-28T09:45:22;3.73;;;3.30;;
7929;SDS011;4010;42.698;23.124;2023-05-28T09:47:49;4.63;;;3.67;;
7929;SDS011;4010;42.698;23.124;2023-05-28T09:50:16;4.63;;;3.43;;
7929;SDS011;4010;42.698;23.124;2023-05-28T09:52:43;3.40;;;3.10;;
7929;SDS011;4010;42.698;23.124;2023-05-28T09:55:12;4.90;;;3.37;;
7929;SDS011;4010;42.698;23.124;2023-05-28T09:57:43;4.47;;;3.33;;
7929;SDS011;4010;42.698;23.124;2023-05-28T10:00:12;4.30;;;3.60;;
7929;SDS011;4010;42.698;23.124;2023-05-28T10:02:50;4.30;;;3.80;;
7929;SDS011;4010;42.698;23.124;2023-05-28T10:05:24;3.60;;;3.27;;
7929;SDS011;4010;42.698;23.124;2023-05-28T10:07:54;3.43;;;3.13;;
7929;SDS011;4010;42.698;23.124;2023-05-28T10:10:22;3.93;;;3.27;;
7929;SDS011;4010;42.698;23.124;2023-05-28T10:12:52;3.50;;;3.17;;
7929;SDS011;4010;42.698;23.124;2023-05-28T10:15:20;3.60;;;3.27;;
7929;SDS011;4010;42.698;23.124;2023-05-28T10:17:47;4.40;;;2.83;;
7929;SDS011;4010;42.698;23.124;2023-05-28T10:20:16;3.90;;;3.50;;
7929;SDS011;4010;42.698;23.124;2023-05-28T10:22:43;3.00;;;2.80;;
7929;SDS011;4010;42.698;23.124;2023-05-28T10:25:11;3.50;;;3.03;;
7929;SDS011;4010;42.698;23.124;2023-05-28T10:27:42;3.77;;;3.30;;
7929;SDS011;4010;42.698;23.124;2023-05-28T10:30:12;5.07;;;3.10;;
7929;SDS011;4010;42.698;23.124;2023-05-28T10:32:56;3.23;;;2.93;;
7929;SDS011;4010;42.698;23.124;2023-05-28T10:35:22;4.53;;;3.20;;
7929;SDS011;4010;42.698;23.124;2023-05-28T10:37:49;3.60;;;3.30;;
7929;SDS011;4010;42.698;23.124;2023-05-28T10:40:21;2.93;;;2.73;;
7929;SDS011;4010;42.698;23.124;2023-05-28T10:42:49;3.20;;;2.90;;
7929;SDS011;4010;42.698;23.124;2023-05-28T10:45:17;3.67;;;2.90;;
7929;SDS011;4010;42.698;23.124;2023-05-28T10:47:50;3.00;;;2.70;;
7929;SDS011;4010;42.698;23.124;2023-05-28T10:50:18;3.50;;;3.20;;
7929;SDS011;4010;42.698;23.124;2023-05-28T10:53:04;3.53;;;3.33;;
7929;SDS011;4010;42.698;23.124;2023-05-28T10:55:48;5.77;;;3.37;;
7929;SDS011;4010;42.698;23.124;2023-05-28T10:58:25;3.63;;;3.33;;
7929;SDS011;4010;42.698;23.124;2023-05-28T11:00:56;5.40;;;3.67;;
7929;SDS011;4010;42.698;23.124;2023-05-28T11:03:38;3.60;;;3.30;;
7929;SDS011;4010;42.698;23.124;2023-05-28T11:06:06;4.30;;;4.00;;
7929;SDS011;4010;42.698;23.124;2023-05-28T11:08:37;4.17;;;3.87;;
7929;SDS011;4010;42.698;23.124;2023-05-28T11:11:05;4.37;;;4.07;;
7929;SDS011;4010;42.698;23.124;2023-05-28T11:13:32;3.43;;;3.13;;
7929;SDS011;4010;42.698;23.124;2023-05-28T11:16:06;3.67;;;3.37;;
7929;SDS011;4010;42.698;23.124;2023-05-28T11:18:33;3.87;;;3.20;;
7929;SDS011;4010;42.698;23.124;2023-05-28T11:21:03;3.53;;;3.23;;
7929;SDS011;4010;42.698;23.124;2023-05-28T11:23:32;3.43;;;3.07;;
7929;SDS011;4010;42.698;23.124;2023-05-28T11:25:59;5.20;;;3.63;;
7929;SDS011;4010;42.698;23.124;2023-05-28T11:28:26;3.70;;;3.40;;
7929;SDS011;4010;42.698;23.124;2023-05-28T11:30:55;3.07;;;2.87;;
7929;SDS011;4010;42.698;23.124;2023-05-28T11:33:25;3.20;;;2.97;;
7929;SDS011;4010;42.698;23.124;2023-05-28T11:35:59;2.87;;;2.67;;
7929;SDS011;4010;42.698;23.124;2023-05-28T11:38:26;3.43;;;3.17;;
7929;SDS011;4010;42.698;23.124;2023-05-28T11:41:00;3.03;;;2.83;;
7929;SDS011;4010;42.698;23.124;2023-05-28T11:43:27;3.87;;;3.40;;
7929;SDS011;4010;42.698;23.124;2023-05-28T11:45:56;5.60;;;3.90;;
7929;SDS011;4010;42.698;23.124;2023-05-28T11:48:25;4.83;;;4.37;;
7929;SDS011;4010;42.698;23.124;2023-05-28T11:50:56;4.70;;;4.30;;
7929;SDS011;4010;42.698;23.124;2023-05-28T11:53:24;5.17;;;3.93;;
7929;SDS011;4010;42.698;23.124;2023-05-28T11:56:04;4.53;;;4.23;;
7929;SDS011;4010;42.698;23.124;2023-05-28T11:58:31;4.20;;;3.90;;
7929;SDS011;4010;42.698;23.124;2023-05-28T12:01:00;5.10;;;4.60;;
7929;SDS011;4010;42.698;23.124;2023-05-28T12:03:28;5.63;;;4.93;;
7929;SDS011;4010;42.698;23.124;2023-05-28T12:05:54;5.70;;;5.20;;
7929;SDS011;4010;42.698;23.124;2023-05-28T12:08:21;4.73;;;4.10;;
7929;SDS011;4010;42.698;23.124;2023-05-28T12:10:48;5.57;;;5.07;;
7929;SDS011;4010;42.698;23.124;2023-05-28T12:13:15;6.27;;;5.77;;
7929;SDS011;4010;42.698;23.124;2023-05-28T12:15:41;6.53;;;5.83;;
7929;SDS011;4010;42.698;23.124;2023-05-28T12:18:08;5.63;;;5.10;;
7929;SDS011;4010;42.698;23.124;2023-05-28T12:20:39;5.40;;;4.90;;
7929;SDS011;4010;42.698;23.124;2023-05-28T12:23:07;5.20;;;4.80;;
7929;SDS011;4010;42.698;23.124;2023-05-28T12:25:47;6.03;;;5.43;;
7929;SDS011;4010;42.698;23.124;2023-05-28T12:28:15;6.10;;;5.27;;
7929;SDS011;4010;42.698;23.124;2023-05-28T12:30:43;5.37;;;4.87;;
7929;SDS011;4010;42.698;23.124;2023-05-28T12:33:13;5.77;;;5.10;;
7929;SDS011;4010;42.698;23.124;2023-05-28T12:35:41;5.83;;;5.33;;
7929;SDS011;4010;42.698;23.124;2023-05-28T12:38:08;5.63;;;4.70;;
7929;SDS011;4010;42.698;23.124;2023-05-28T12:40:35;4.97;;;4.50;;
7929;SDS011;4010;42.698;23.124;2023-05-28T12:43:01;5.93;;;5.07;;
7929;SDS011;4010;42.698;23.124;2023-05-28T12:45:28;6.40;;;4.10;;
7929;SDS011;4010;42.698;23.124;2023-05-28T12:47:55;5.43;;;4.93;;
7929;SDS011;4010;42.698;23.124;2023-05-28T12:50:21;4.80;;;4.40;;
7929;SDS011;4010;42.698;23.124;2023-05-28T12:52:49;4.73;;;4.33;;
7929;SDS011;4010;42.698;23.124;2023-05-28T12:55:16;5.50;;;5.00;;
7929;SDS011;4010;42.698;23.124;2023-05-28T12:57:43;5.63;;;4.57;;
7929;SDS011;4010;42.698;23.124;2023-05-28T13:00:10;6.00;;;5.00;;
7929;SDS011;4010;42.698;23.124;2023-05-28T13:02:38;6.10;;;4.90;;
7929;SDS011;4010;42.698;23.124;2023-05-28T13:05:05;5.77;;;5.17;;
7929;SDS011;4010;42.698;23.124;2023-05-28T13:07:33;5.50;;;4.87;;
7929;SDS011;4010;42.698;23.124;2023-05-28T13:10:02;5.57;;;4.93;;
7929;SDS011;4010;42.698;23.124;2023-05-28T13:12:32;5.20;;;4.70;;
7929;SDS011;4010;42.698;23.124;2023-05-28T13:15:02;6.23;;;5.60;;
7929;SDS011;4010;42.698;23.124;2023-05-28T13:17:29;7.90;;;5.13;;
7929;SDS011;4010;42.698;23.124;2023-05-28T13:19:56;5.37;;;4.90;;
7929;SDS011;4010;42.698;23.124;2023-05-28T13:22:23;5.57;;;4.87;;
7929;SDS011;4010;42.698;23.124;2023-05-28T13:24:50;6.63;;;5.90;;
7929;SDS011;4010;42.698;23.124;2023-05-28T13:27:18;5.63;;;5.13;;
7929;SDS011;4010;42.698;23.124;2023-05-28T13:29:45;6.27;;;5.67;;
7929;SDS011;4010;42.698;23.124;2023-05-28T13:32:12;5.93;;;5.47;;
7929;SDS011;4010;42.698;23.124;2023-05-28T13:34:38;5.90;;;5.30;;
7929;SDS011;4010;42.698;23.124;2023-05-28T13:37:05;6.47;;;5.63;;
7929;SDS011;4010;42.698;23.124;2023-05-28T13:39:32;5.97;;;5.47;;
7929;SDS011;4010;42.698;23.124;2023-05-28T13:41:59;6.87;;;6.27;;
7929;SDS011;4010;42.698;23.124;2023-05-28T13:44:27;6.23;;;5.73;;
7929;SDS011;4010;42.698;23.124;2023-05-28T13:46:54;7.13;;;6.50;;
7929;SDS011;4010;42.698;23.124;2023-05-28T13:49:20;7.93;;;5.90;;
7929;SDS011;4010;42.698;23.124;2023-05-28T13:51:47;7.20;;;5.93;;
7929;SDS011;4010;42.698;23.124;2023-05-28T13:54:14;6.53;;;5.83;;
7929;SDS011;4010;42.698;23.124;2023-05-28T13:56:40;6.00;;;5.50;;
7929;SDS011;4010;42.698;23.124;2023-05-28T13:59:07;5.90;;;5.40;;
7929;SDS011;4010;42.698;23.124;2023-05-28T14:01:35;7.77;;;5.10;;
7929;SDS011;4010;42.698;23.124;2023-05-28T14:04:02;5.60;;;5.10;;
7929;SDS011;4010;42.698;23.124;2023-05-28T14:06:29;6.60;;;5.60;;
7929;SDS011;4010;42.698;23.124;2023-05-28T14:08:57;5.83;;;5.33;;
7929;SDS011;4010;42.698;23.124;2023-05-28T14:11:23;6.40;;;5.80;;
7929;SDS011;4010;42.698;23.124;2023-05-28T14:13:50;5.63;;;5.13;;
7929;SDS011;4010;42.698;23.124;2023-05-28T14:16:17;5.90;;;5.20;;
7929;SDS011;4010;42.698;23.124;2023-05-28T14:18:45;6.13;;;5.47;;
7929;SDS011;4010;42.698;23.124;2023-05-28T14:21:12;5.80;;;5.00;;
7929;SDS011;4010;42.698;23.124;2023-05-28T14:23:38;5.27;;;4.87;;
7929;SDS011;4010;42.698;23.124;2023-05-28T14:26:05;6.23;;;5.20;;
7929;SDS011;4010;42.698;23.124;2023-05-28T14:28:32;5.87;;;5.23;;
7929;SDS011;4010;42.698;23.124;2023-05-28T14:30:58;6.10;;;5.50;;
7929;SDS011;4010;42.698;23.124;2023-05-28T14:33:25;6.17;;;5.40;;
7929;SDS011;4010;42.698;23.124;2023-05-28T14:35:55;5.17;;;4.77;;
7929;SDS011;4010;42.698;23.124;2023-05-28T14:38:21;5.50;;;5.10;;
7929;SDS011;4010;42.698;23.124;2023-05-28T14:40:48;6.37;;;5.63;;
7929;SDS011;4010;42.698;23.124;2023-05-28T14:43:15;6.37;;;5.77;;
7929;SDS011;4010;42.698;23.124;2023-05-28T14:45:42;6.57;;;5.70;;
7929;SDS011;4010;42.698;23.124;2023-05-28T14:48:08;5.97;;;5.43;;
7929;SDS011;4010;42.698;23.124;2023-05-28T14:50:35;5.80;;;5.37;;
7929;SDS011;4010;42.698;23.124;2023-05-28T14:53:03;6.63;;;5.33;;
7929;SDS011;4010;42.698;23.124;2023-05-28T14:55:30;6.57;;;5.40;;
7929;SDS011;4010;42.698;23.124;2023-05-28T14:57:57;5.60;;;5.10;;
7929;SDS011;4010;42.698;23.124;2023-05-28T15:00:24;5.10;;;4.70;;
7929;SDS011;4010;42.698;23.124;2023-05-28T15:02:50;5.50;;;5.00;;